Time;durP1;ratioP1;P1;durP2;ratioP2;P2;SDS_P1;SDS_P2;PMS_P1;PMS_P2;Temp;Humidity;BMP_temperature;BMP_pressure;BME280_temperature;BME280_humidity;BME280_pressure;Samples;Min_cycle;Max_cycle;Signal;HPM_P1;HPM_P2
2023/12/16 00:02:23;;;;;;;72.65;7.93;;;;;;;;;;5003550;28;20532;-59
2023/12/16 00:05:10;;;;;;;64.47;6.18;;;;;;;;;;5006429;28;20037;-61
2023/12/16 00:08:04;;;;;;;67.43;6.03;;;;;;;;;;5008420;28;20050;-58
2023/12/16 00:10:51;;;;;;;54.72;6.63;;;;;;;;;;5007263;28;20052;-58
2023/12/16 00:13:45;;;;;;;63.50;6.43;;;;;;;;;;5011350;28;20056;-58
2023/12/16 00:16:33;;;;;;;70.38;6.75;;;;;;;;;;5003571;28;20057;-59
2023/12/16 00:19:07;;;;;;;85.32;8.02;;;;;;;;;;5011522;28;20140;-58
2023/12/16 00:21:35;;;;;;;81.55;7.82;;;;;;;;;;4990429;28;20080;-59
2023/12/16 00:24:02;;;;;;;79.60;7.65;;;;;;;;;;5001431;28;20065;-59
2023/12/16 00:26:36;;;;;;;68.10;6.18;;;;;;;;;;5005830;28;20041;-59
2023/12/16 00:29:03;;;;;;;80.60;7.35;;;;;;;;;;5009741;28;20045;-59
2023/12/16 00:31:37;;;;;;;62.15;7.60;;;;;;;;;;5007745;28;20480;-73
2023/12/16 00:34:11;;;;;;;69.47;6.75;;;;;;;;;;5008634;28;20166;-57
2023/12/16 00:36:41;;;;;;;70.63;6.55;;;;;;;;;;5006890;28;20057;-57
2023/12/16 00:39:09;;;;;;;70.22;7.22;;;;;;;;;;5002760;28;20144;-58
2023/12/16 00:41:43;;;;;;;60.65;7.05;;;;;;;;;;4994992;28;20583;-58
2023/12/16 00:44:10;;;;;;;72.22;7.43;;;;;;;;;;5009836;28;20524;-57
2023/12/16 00:46:37;;;;;;;68.78;6.80;;;;;;;;;;5009300;28;20077;-57
2023/12/16 00:49:11;;;;;;;66.15;6.35;;;;;;;;;;5010150;28;20636;-55
2023/12/16 00:51:38;;;;;;;;;;;;;;;;;;5007247;28;20053;-56
2023/12/16 00:54:12;;;;;;;78.00;8.13;;;;;;;;;;5007425;28;20337;-55
2023/12/16 00:56:39;;;;;;;;;;;;;;;;;;4992040;28;20049;-55
2023/12/16 00:59:06;;;;;;;69.03;6.88;;;;;;;;;;5008995;28;19973;-61
2023/12/16 01:01:40;;;;;;;57.42;6.65;;;;;;;;;;5002478;28;20049;-61
2023/12/16 01:04:08;;;;;;;88.03;7.15;;;;;;;;;;5012178;28;20052;-58
2023/12/16 01:06:35;;;;;;;81.07;7.03;;;;;;;;;;5005967;28;20057;-59
2023/12/16 01:09:10;;;;;;;69.45;7.28;;;;;;;;;;5008637;28;20072;-58
2023/12/16 01:11:37;;;;;;;90.55;8.32;;;;;;;;;;5001375;28;20046;-58
2023/12/16 01:14:11;;;;;;;72.55;6.82;;;;;;;;;;5010650;28;20061;-58
2023/12/16 01:16:38;;;;;;;71.78;7.97;;;;;;;;;;5010455;28;20053;-59
2023/12/16 01:19:05;;;;;;;78.40;6.53;;;;;;;;;;5008686;28;20101;-58
2023/12/16 01:21:42;;;;;;;78.75;7.75;;;;;;;;;;5007415;28;20095;-59
2023/12/16 01:24:10;;;;;;;91.30;8.18;;;;;;;;;;5006776;28;20077;-59
2023/12/16 01:26:44;;;;;;;78.20;7.60;;;;;;;;;;5007335;28;21109;-59
2023/12/16 01:29:11;;;;;;;72.32;7.72;;;;;;;;;;5009111;28;20068;-61
2023/12/16 01:31:38;;;;;;;72.30;6.93;;;;;;;;;;5005634;28;20049;-58
2023/12/16 01:34:12;;;;;;;77.60;7.53;;;;;;;;;;4988883;28;20491;-58
2023/12/16 01:36:40;;;;;;;65.68;8.07;;;;;;;;;;4990698;28;20091;-58
2023/12/16 01:39:13;;;;;;;67.40;8.15;;;;;;;;;;4999526;28;20432;-58
2023/12/16 01:41:40;;;;;;;;;;;;;;;;;;5004770;28;20061;-58
2023/12/16 01:44:08;;;;;;;66.45;8.02;;;;;;;;;;5003591;28;19936;-58
2023/12/16 01:46:42;;;;;;;69.18;5.85;;;;;;;;;;4997774;28;20161;-59
2023/12/16 01:49:10;;;;;;;81.50;7.95;;;;;;;;;;4991810;28;20663;-60
2023/12/16 01:51:44;;;;;;;65.13;6.03;;;;;;;;;;5001818;28;20048;-60
2023/12/16 01:54:11;;;;;;;;;;;;;;;;;;5000023;28;20084;-61
2023/12/16 01:56:39;;;;;;;74.85;7.03;;;;;;;;;;4994556;28;20055;-62
2023/12/16 01:59:13;;;;;;;61.60;6.82;;;;;;;;;;4997574;28;21061;-61
2023/12/16 02:01:40;;;;;;;61.22;6.75;;;;;;;;;;4998444;28;20055;-61
2023/12/16 02:04:14;;;;;;;55.58;6.32;;;;;;;;;;5000442;28;20303;-56
2023/12/16 02:06:41;;;;;;;61.20;7.90;;;;;;;;;;5000342;28;20069;-55
2023/12/16 02:09:09;;;;;;;57.72;6.18;;;;;;;;;;5000848;28;20263;-59
2023/12/16 02:12:03;;;;;;;80.18;6.45;;;;;;;;;;5001427;28;20240;-59
2023/12/16 02:14:57;;;;;;;78.93;8.15;;;;;;;;;;5001554;28;20046;-59
2023/12/16 02:17:51;;;;;;;58.40;7.10;;;;;;;;;;5004454;28;20072;-59
2023/12/16 02:20:38;;;;;;;73.15;7.10;;;;;;;;;;5009639;28;20428;-59
2023/12/16 02:23:32;;;;;;;59.10;6.63;;;;;;;;;;5012862;28;20108;-57
2023/12/16 02:26:19;;;;;;;66.13;7.38;;;;;;;;;;5008412;28;20580;-61
2023/12/16 02:29:13;;;;;;;71.72;6.15;;;;;;;;;;5011891;28;20049;-60
2023/12/16 02:32:07;;;;;;;69.20;7.10;;;;;;;;;;5011614;28;20059;-60
2023/12/16 02:35:01;;;;;;;61.60;6.15;;;;;;;;;;5014474;28;20131;-60
2023/12/16 02:37:48;;;;;;;57.67;6.65;;;;;;;;;;5010269;28;20042;-60
2023/12/16 02:40:43;;;;;;;58.13;6.13;;;;;;;;;;5009808;28;20037;-60
2023/12/16 02:43:29;;;;;;;44.20;7.63;;;;;;;;;;5002024;28;20053;-59
2023/12/16 02:46:24;;;;;;;58.47;6.43;;;;;;;;;;5011724;28;20053;-59
2023/12/16 02:49:10;;;;;;;56.58;6.38;;;;;;;;;;5013333;28;20508;-59
2023/12/16 02:52:04;;;;;;;49.80;5.93;;;;;;;;;;5008473;28;20428;-57
2023/12/16 02:54:52;;;;;;;61.40;7.60;;;;;;;;;;5008783;28;20081;-61
2023/12/16 02:57:45;;;;;;;70.72;7.20;;;;;;;;;;5011552;28;20049;-61
2023/12/16 03:00:32;;;;;;;58.78;7.10;;;;;;;;;;5005284;28;20068;-61
2023/12/16 03:03:26;;;;;;;75.32;6.80;;;;;;;;;;5000660;28;20417;-61
2023/12/16 03:06:13;;;;;;;80.10;7.43;;;;;;;;;;5005619;28;20464;-61
2023/12/16 03:09:07;;;;;;;73.13;6.55;;;;;;;;;;5005696;28;20080;-61
2023/12/16 03:11:54;;;;;;;80.25;6.60;;;;;;;;;;5007083;28;20045;-77
2023/12/16 03:14:48;;;;;;;65.45;8.35;;;;;;;;;;5006611;28;20045;-77
2023/12/16 03:17:35;;;;;;;70.63;6.97;;;;;;;;;;5006859;28;20501;-76
2023/12/16 03:20:29;;;;;;;75.90;6.05;;;;;;;;;;5008332;28;20052;-61
2023/12/16 03:23:16;;;;;;;86.13;9.07;;;;;;;;;;5010897;28;20053;-60
2023/12/16 03:26:10;;;;;;;77.90;6.55;;;;;;;;;;5011131;28;20050;-60
2023/12/16 03:28:57;;;;;;;68.47;6.38;;;;;;;;;;5014117;28;20085;-59
2023/12/16 03:31:58;;;;;;;68.93;6.55;;;;;;;;;;5008927;28;20061;-63
2023/12/16 03:34:45;;;;;;;85.10;7.32;;;;;;;;;;5006731;28;20057;-60
2023/12/16 03:37:39;;;;;;;64.10;6.82;;;;;;;;;;5010830;28;20061;-60
2023/12/16 03:40:27;;;;;;;58.50;7.45;;;;;;;;;;5008300;28;20055;-57
2023/12/16 03:43:20;;;;;;;49.78;5.75;;;;;;;;;;5013238;28;20501;-55
2023/12/16 03:46:10;;;;;;;68.30;7.57;;;;;;;;;;5007035;28;20136;-56
2023/12/16 03:49:04;;;;;;;83.50;8.52;;;;;;;;;;5009345;28;20049;-61
2023/12/16 03:51:53;;;;;;;57.10;5.60;;;;;;;;;;5013791;28;20136;-48
2023/12/16 03:54:45;;;;;;;80.22;6.78;;;;;;;;;;5012327;28;20052;-52
2023/12/16 03:57:33;;;;;;;109.10;8.43;;;;;;;;;;5013976;28;20081;-49
2023/12/16 04:00:26;;;;;;;81.53;7.97;;;;;;;;;;5010312;28;20241;-53
2023/12/16 04:03:13;;;;;;;140.65;11.32;;;;;;;;;;5014759;28;20062;-52
2023/12/16 04:06:13;;;;;;;103.93;9.82;;;;;;;;;;5013371;28;20579;-51
2023/12/16 04:09:00;;;;;;;371.58;21.95;;;;;;;;;;5015984;28;20507;-60
2023/12/16 04:11:54;;;;;;;106.18;10.18;;;;;;;;;;5009435;28;20042;-60
2023/12/16 04:14:41;;;;;;;148.50;11.82;;;;;;;;;;5010473;28;20046;-60
2023/12/16 04:17:35;;;;;;;323.10;20.15;;;;;;;;;;5013598;28;20053;-59
2023/12/16 04:20:22;;;;;;;72.53;8.30;;;;;;;;;;5010222;28;20056;-59
2023/12/16 04:23:16;;;;;;;381.20;21.95;;;;;;;;;;5011073;28;20595;-59
2023/12/16 04:26:03;;;;;;;136.77;11.07;;;;;;;;;;5014935;28;20230;-59
2023/12/16 04:28:57;;;;;;;123.85;9.65;;;;;;;;;;5014249;28;20045;-56
2023/12/16 04:31:51;;;;;;;120.75;9.85;;;;;;;;;;5010245;28;20053;-56
2023/12/16 04:34:44;;;;;;;88.88;9.02;;;;;;;;;;5010508;28;20169;-61
2023/12/16 04:37:31;;;;;;;141.80;9.57;;;;;;;;;;5011723;28;20068;-61
2023/12/16 04:40:25;;;;;;;141.95;12.80;;;;;;;;;;5014076;28;20539;-61
2023/12/16 04:43:12;;;;;;;590.88;35.97;;;;;;;;;;5012680;28;20045;-60
2023/12/16 04:46:06;;;;;;;671.28;36.33;;;;;;;;;;5015066;28;20155;-60
2023/12/16 04:49:01;;;;;;;542.35;31.65;;;;;;;;;;5012698;28;20151;-62
2023/12/16 04:51:48;;;;;;;554.03;32.97;;;;;;;;;;5011200;28;20050;-61
2023/12/16 04:54:41;;;;;;;70.95;9.38;;;;;;;;;;5012679;28;20125;-61
2023/12/16 04:57:28;;;;;;;295.58;21.38;;;;;;;;;;5011417;28;20053;-61
2023/12/16 05:00:22;;;;;;;299.92;19.48;;;;;;;;;;5011116;28;20543;-62
2023/12/16 05:03:09;;;;;;;206.85;17.23;;;;;;;;;;5010257;28;20129;-56
2023/12/16 05:06:04;;;;;;;588.45;34.00;;;;;;;;;;5007892;28;20045;-58
2023/12/16 05:08:50;;;;;;;858.08;48.67;;;;;;;;;;5010579;28;20060;-56
2023/12/16 05:11:44;;;;;;;553.72;32.63;;;;;;;;;;5009078;28;20081;-57
2023/12/16 05:14:31;;;;;;;633.75;36.45;;;;;;;;;;5008150;28;20144;-52
2023/12/16 05:17:25;;;;;;;624.05;37.28;;;;;;;;;;5008882;28;20060;-62
2023/12/16 05:20:13;;;;;;;415.83;27.15;;;;;;;;;;5008499;28;20053;-62
2023/12/16 05:23:06;;;;;;;868.92;50.30;;;;;;;;;;5013730;28;20041;-61
2023/12/16 05:25:53;;;;;;;286.58;20.75;;;;;;;;;;5011478;28;20060;-62
2023/12/16 05:28:47;;;;;;;745.00;42.95;;;;;;;;;;5011314;28;20057;-62
2023/12/16 05:31:41;;;;;;;347.20;25.75;;;;;;;;;;5011398;28;20053;-58
2023/12/16 05:34:35;;;;;;;935.00;54.97;;;;;;;;;;5014529;28;20509;-56
2023/12/16 05:37:22;;;;;;;404.83;29.05;;;;;;;;;;5006123;28;20161;-58
2023/12/16 05:40:16;;;;;;;790.88;51.85;;;;;;;;;;5005183;28;20702;-55
2023/12/16 05:43:03;;;;;;;166.27;15.80;;;;;;;;;;5009286;28;20050;-61
2023/12/16 05:45:57;;;;;;;365.48;27.17;;;;;;;;;;5009305;28;20048;-74
2023/12/16 05:48:44;;;;;;;127.18;15.38;;;;;;;;;;5013211;28;20081;-74
2023/12/16 05:51:39;;;;;;;155.50;13.63;;;;;;;;;;5011937;28;20049;-73
2023/12/16 05:54:26;;;;;;;349.83;23.80;;;;;;;;;;5012157;28;20050;-72
2023/12/16 05:57:20;;;;;;;231.63;20.38;;;;;;;;;;5000545;28;20057;-71
2023/12/16 06:00:08;;;;;;;271.35;21.08;;;;;;;;;;5012278;28;20294;-59
2023/12/16 06:03:01;;;;;;;388.80;25.73;;;;;;;;;;5012096;28;20049;-57
2023/12/16 06:05:48;;;;;;;345.35;23.70;;;;;;;;;;5012548;28;20069;-57
2023/12/16 06:08:42;;;;;;;479.92;30.25;;;;;;;;;;5015786;28;20354;-59
2023/12/16 06:11:29;;;;;;;419.85;28.67;;;;;;;;;;5013640;28;20331;-72
2023/12/16 06:14:23;;;;;;;510.08;34.38;;;;;;;;;;5014975;28;20088;-58
2023/12/16 06:17:10;;;;;;;483.35;35.63;;;;;;;;;;5015421;28;20397;-58
2023/12/16 06:20:05;;;;;;;472.20;35.58;;;;;;;;;;5014065;28;20059;-58
2023/12/16 06:22:52;;;;;;;390.00;27.13;;;;;;;;;;5016156;28;20108;-59
2023/12/16 06:25:46;;;;;;;329.90;22.48;;;;;;;;;;5012742;28;21011;-59
2023/12/16 06:28:33;;;;;;;192.18;17.77;;;;;;;;;;5009342;28;20045;-52
2023/12/16 06:31:34;;;;;;;437.38;27.77;;;;;;;;;;5006375;28;20115;-49
2023/12/16 06:34:21;;;;;;;668.50;40.95;;;;;;;;;;4998527;28;20065;-51
2023/12/16 06:37:15;;;;;;;229.70;20.13;;;;;;;;;;4984644;28;20054;-52
2023/12/16 06:40:03;;;;;;;478.98;30.08;;;;;;;;;;4995608;28;20046;-74
2023/12/16 06:42:56;;;;;;;225.80;17.83;;;;;;;;;;4991073;28;20046;-55
2023/12/16 06:45:43;;;;;;;354.23;22.15;;;;;;;;;;4989056;28;20046;-58
2023/12/16 06:48:37;;;;;;;134.00;10.68;;;;;;;;;;4986547;28;20140;-58
2023/12/16 06:51:24;;;;;;;132.32;11.50;;;;;;;;;;4991407;28;21799;-58
2023/12/16 06:54:19;;;;;;;99.22;9.75;;;;;;;;;;4980135;28;20121;-56
2023/12/16 06:57:06;;;;;;;225.18;15.63;;;;;;;;;;4994317;28;20057;-50
2023/12/16 06:59:59;;;;;;;121.00;9.68;;;;;;;;;;4991004;28;20056;-50
2023/12/16 07:02:46;;;;;;;217.90;16.30;;;;;;;;;;4992312;28;20113;-52
2023/12/16 07:05:40;;;;;;;119.47;10.07;;;;;;;;;;4996839;28;20061;-51
2023/12/16 07:08:27;;;;;;;533.67;28.65;;;;;;;;;;4993042;28;21106;-73
2023/12/16 07:11:21;;;;;;;132.73;12.00;;;;;;;;;;4993728;28;20054;-61
2023/12/16 07:14:15;;;;;;;134.60;9.60;;;;;;;;;;4991488;28;20463;-61
2023/12/16 07:17:02;;;;;;;145.10;13.65;;;;;;;;;;4993018;28;20399;-61
2023/12/16 07:19:56;;;;;;;138.27;11.60;;;;;;;;;;4993722;28;20472;-61
2023/12/16 07:22:43;;;;;;;172.45;13.57;;;;;;;;;;4986150;28;20559;-61
2023/12/16 07:25:37;;;;;;;82.85;7.03;;;;;;;;;;4992429;28;20559;-74
2023/12/16 07:28:24;;;;;;;182.13;14.18;;;;;;;;;;4995728;28;20077;-73
2023/12/16 07:31:25;;;;;;;205.02;17.23;;;;;;;;;;4997603;28;20105;-74
2023/12/16 07:34:12;;;;;;;487.75;28.35;;;;;;;;;;5011225;28;20559;-74
2023/12/16 07:37:07;;;;;;;369.52;22.48;;;;;;;;;;5008977;28;20523;-61
2023/12/16 07:39:54;;;;;;;246.45;16.92;;;;;;;;;;5009701;28;20045;-64
2023/12/16 07:42:48;;;;;;;217.48;13.82;;;;;;;;;;5008894;28;20143;-64
2023/12/16 07:45:36;;;;;;;174.32;13.00;;;;;;;;;;5009002;28;20056;-63
2023/12/16 07:48:29;;;;;;;174.73;14.07;;;;;;;;;;5011320;28;20072;-63
2023/12/16 07:51:17;;;;;;;148.45;14.85;;;;;;;;;;5015114;28;20440;-63
2023/12/16 07:54:11;;;;;;;751.70;39.70;;;;;;;;;;5015824;28;20111;-60
2023/12/16 07:56:57;;;;;;;123.57;9.77;;;;;;;;;;5013465;28;20057;-61
2023/12/16 07:59:51;;;;;;;265.98;14.20;;;;;;;;;;5016543;28;20049;-61
2023/12/16 08:02:38;;;;;;;539.88;28.60;;;;;;;;;;5011311;28;20053;-60
2023/12/16 08:05:32;;;;;;;175.23;11.82;;;;;;;;;;5007378;28;20041;-51
2023/12/16 08:08:19;;;;;;;287.60;17.42;;;;;;;;;;5016826;28;20190;-75
2023/12/16 08:11:13;;;;;;;372.83;23.00;;;;;;;;;;5009966;28;20053;-76
2023/12/16 08:14:00;;;;;;;165.90;11.85;;;;;;;;;;5012358;28;20053;-75
2023/12/16 08:16:54;;;;;;;249.00;15.77;;;;;;;;;;5013663;28;20053;-75
2023/12/16 08:19:42;;;;;;;811.72;46.10;;;;;;;;;;5015186;28;20046;-77
2023/12/16 08:22:35;;;;;;;366.13;19.25;;;;;;;;;;5011905;28;20113;-60
2023/12/16 08:25:23;;;;;;;327.48;18.98;;;;;;;;;;5012216;28;20057;-60
2023/12/16 08:28:16;;;;;;;282.08;15.55;;;;;;;;;;5011681;28;20049;-60
2023/12/16 08:31:10;;;;;;;67.18;7.25;;;;;;;;;;5012993;28;20050;-60
2023/12/16 08:34:03;;;;;;;169.70;10.98;;;;;;;;;;5011511;28;20137;-63
2023/12/16 08:36:50;;;;;;;254.55;16.23;;;;;;;;;;5008467;28;20437;-61
2023/12/16 08:39:44;;;;;;;95.65;7.85;;;;;;;;;;5012575;28;20128;-61
2023/12/16 08:42:31;;;;;;;111.78;7.22;;;;;;;;;;5013336;28;20041;-61
2023/12/16 08:45:25;;;;;;;49.88;5.47;;;;;;;;;;5012787;28;20136;-61
2023/12/16 08:48:12;;;;;;;86.43;6.28;;;;;;;;;;5015472;28;20100;-61
2023/12/16 08:51:06;;;;;;;59.55;4.95;;;;;;;;;;5014995;28;20046;-62
2023/12/16 08:53:53;;;;;;;261.25;14.25;;;;;;;;;;5005765;28;20049;-62
2023/12/16 08:56:47;;;;;;;48.13;5.40;;;;;;;;;;5009801;28;20053;-63
2023/12/16 08:59:35;;;;;;;51.00;5.43;;;;;;;;;;5011065;28;20472;-63
2023/12/16 09:02:28;;;;;;;171.55;10.43;;;;;;;;;;5015107;28;20588;-62
2023/12/16 09:05:16;;;;;;;109.88;9.15;;;;;;;;;;5016296;28;20045;-63
2023/12/16 09:08:09;;;;;;;275.23;15.65;;;;;;;;;;5013729;28;20049;-63
2023/12/16 09:10:56;;;;;;;74.55;7.25;;;;;;;;;;5012007;28;20042;-64
2023/12/16 09:13:50;;;;;;;71.43;7.15;;;;;;;;;;5017238;28;20065;-63
2023/12/16 09:16:37;;;;;;;62.90;7.03;;;;;;;;;;5013535;28;20127;-63
2023/12/16 09:19:31;;;;;;;83.40;8.55;;;;;;;;;;5011204;28;20061;-53
2023/12/16 09:22:19;;;;;;;117.10;6.90;;;;;;;;;;5013026;28;20405;-52
2023/12/16 09:25:12;;;;;;;104.75;7.90;;;;;;;;;;5016099;28;20049;-52
2023/12/16 09:28:00;;;;;;;116.22;8.38;;;;;;;;;;5016625;28;20049;-53
2023/12/16 09:30:53;;;;;;;210.77;13.07;;;;;;;;;;5018977;28;20141;-60
2023/12/16 09:33:47;;;;;;;63.88;5.85;;;;;;;;;;5018110;28;20049;-60
2023/12/16 09:36:34;;;;;;;93.22;8.82;;;;;;;;;;5018819;28;20049;-60
2023/12/16 09:39:28;;;;;;;118.88;8.70;;;;;;;;;;5018387;28;20046;-61
2023/12/16 09:42:15;;;;;;;62.10;7.00;;;;;;;;;;5017855;28;20136;-60
2023/12/16 09:45:11;;;;;;;77.75;8.00;;;;;;;;;;5022660;28;21889;-60
2023/12/16 09:47:59;;;;;;;61.42;6.13;;;;;;;;;;5020427;28;20065;-62
2023/12/16 09:50:53;;;;;;;66.03;6.57;;;;;;;;;;5008581;28;20077;-58
2023/12/16 09:53:40;;;;;;;96.05;8.32;;;;;;;;;;5014061;28;20045;-57
2023/12/16 09:56:34;;;;;;;62.85;6.03;;;;;;;;;;5009389;28;20057;-59
2023/12/16 09:59:22;;;;;;;57.25;6.47;;;;;;;;;;5011037;28;20057;-64
2023/12/16 10:02:26;;;;;;;100.90;8.98;;;;;;;;;;5007527;28;20049;-60
2023/12/16 10:05:13;;;;;;;229.27;13.75;;;;;;;;;;5011222;28;20586;-61
2023/12/16 10:08:06;;;;;;;105.25;9.70;;;;;;;;;;5009007;28;20034;-60
2023/12/16 10:11:00;;;;;;;63.78;6.28;;;;;;;;;;5008247;28;20357;-60
2023/12/16 10:13:59;;;;;;;51.17;5.63;;;;;;;;;;5004275;28;20062;-61
2023/12/16 10:16:50;;;;;;;84.35;7.75;;;;;;;;;;5007157;28;20053;-52
2023/12/16 10:19:43;;;;;;;70.57;6.72;;;;;;;;;;5008956;28;20560;-51
2023/12/16 10:22:30;;;;;;;56.85;6.50;;;;;;;;;;5010495;28;20100;-48
2023/12/16 10:25:24;;;;;;;46.10;5.55;;;;;;;;;;4985373;28;20056;-56
2023/12/16 10:28:12;;;;;;;57.40;6.63;;;;;;;;;;5006490;28;20061;-63
2023/12/16 10:31:12;;;;;;;61.90;6.70;;;;;;;;;;5013716;28;20050;-64
2023/12/16 10:34:06;;;;;;;73.07;7.32;;;;;;;;;;4994701;28;20149;-63
2023/12/16 10:37:05;;;;;;;55.03;6.82;;;;;;;;;;4994402;28;20505;-63
2023/12/16 10:39:52;;;;;;;66.07;6.40;;;;;;;;;;4990887;28;20053;-63
2023/12/16 10:42:46;;;;;;;85.55;8.80;;;;;;;;;;4988649;28;20050;-64
2023/12/16 10:45:34;;;;;;;65.57;7.13;;;;;;;;;;4996724;28;20046;-61
2023/12/16 10:48:29;;;;;;;166.63;12.35;;;;;;;;;;4990867;28;20430;-61
2023/12/16 10:51:24;;;;;;;77.85;6.78;;;;;;;;;;4997698;28;20038;-61
2023/12/16 10:54:21;;;;;;;31.08;4.78;;;;;;;;;;4996524;28;20498;-60
2023/12/16 10:57:30;;;;;;;52.35;7.13;;;;;;;;;;4995240;28;20050;-62
2023/12/16 11:00:23;;;;;;;55.90;6.68;;;;;;;;;;4997973;28;20514;-55
2023/12/16 11:03:24;;;;;;;68.97;6.82;;;;;;;;;;4993353;28;20599;-55
2023/12/16 11:06:16;;;;;;;88.40;8.18;;;;;;;;;;4984919;28;20050;-50
2023/12/16 11:09:11;;;;;;;74.05;8.02;;;;;;;;;;4995197;28;20413;-50
2023/12/16 11:12:06;;;;;;;51.17;6.93;;;;;;;;;;4992742;28;20053;-54
2023/12/16 11:14:59;;;;;;;78.50;7.03;;;;;;;;;;4994158;28;20108;-60
2023/12/16 11:17:53;;;;;;;59.20;7.43;;;;;;;;;;4987084;28;20054;-60
2023/12/16 11:20:52;;;;;;;128.98;9.50;;;;;;;;;;4992560;28;20481;-60
2023/12/16 11:23:45;;;;;;;76.25;6.13;;;;;;;;;;4993166;28;20049;-69
2023/12/16 11:26:39;;;;;;;73.40;6.30;;;;;;;;;;4997697;28;20494;-58
2023/12/16 11:29:26;;;;;;;58.95;6.45;;;;;;;;;;4995857;28;20065;-59
2023/12/16 11:32:27;;;;;;;40.60;5.43;;;;;;;;;;4994373;28;20682;-58
2023/12/16 11:35:14;;;;;;;96.70;8.57;;;;;;;;;;4976728;28;20529;-57
2023/12/16 11:38:08;;;;;;;52.17;5.82;;;;;;;;;;4994645;28;20054;-58
2023/12/16 11:40:58;;;;;;;51.55;5.50;;;;;;;;;;4996241;28;20100;-58
2023/12/16 11:43:49;;;;;;;59.47;6.80;;;;;;;;;;4996367;28;20144;-60
2023/12/16 11:46:40;;;;;;;63.95;6.90;;;;;;;;;;4990917;28;20066;-60
2023/12/16 11:49:34;;;;;;;56.65;6.32;;;;;;;;;;4983986;28;20050;-60
2023/12/16 11:52:02;;;;;;;67.90;7.63;;;;;;;;;;4978310;28;20136;-62
2023/12/16 11:54:36;;;;;;;46.78;5.60;;;;;;;;;;4991051;28;20053;-56
2023/12/16 11:57:03;;;;;;;39.88;4.93;;;;;;;;;;4988778;28;20514;-58
2023/12/16 11:59:37;;;;;;;39.10;5.45;;;;;;;;;;4997647;28;20050;-57
2023/12/16 12:02:06;;;;;;;57.00;5.45;;;;;;;;;;4988836;28;20058;-58
2023/12/16 12:04:41;;;;;;;33.25;4.22;;;;;;;;;;4993689;28;20528;-58
2023/12/16 12:07:09;;;;;;;37.20;4.35;;;;;;;;;;4982453;28;20054;-58
2023/12/16 12:09:39;;;;;;;45.72;6.88;;;;;;;;;;4913399;28;28009;-58
2023/12/16 12:12:13;;;;;;;44.20;5.90;;;;;;;;;;4971866;28;20069;-60
2023/12/16 12:14:46;;;;;;;39.63;4.88;;;;;;;;;;4973478;28;20078;-67
2023/12/16 12:17:37;;;;;;;52.90;5.75;;;;;;;;;;4970867;28;20051;-68
2023/12/16 12:20:24;;;;;;;35.92;4.30;;;;;;;;;;4972766;28;20779;-67
2023/12/16 12:23:18;;;;;;;53.17;7.25;;;;;;;;;;4966451;28;20070;-67
2023/12/16 12:26:05;;;;;;;46.00;5.03;;;;;;;;;;4967772;28;20124;-68
2023/12/16 12:28:59;;;;;;;51.50;5.72;;;;;;;;;;4970429;28;20109;-56
2023/12/16 12:32:03;;;;;;;51.72;7.03;;;;;;;;;;4970436;28;20046;-58
2023/12/16 12:34:56;;;;;;;58.22;5.93;;;;;;;;;;4990062;28;20042;-59
2023/12/16 12:37:50;;;;;;;47.63;6.03;;;;;;;;;;4988376;28;20061;-59
2023/12/16 12:40:38;;;;;;;64.78;7.60;;;;;;;;;;4988870;28;20438;-58
2023/12/16 12:43:33;;;;;;;51.90;5.78;;;;;;;;;;4992944;28;20046;-58
2023/12/16 12:46:19;;;;;;;46.55;5.40;;;;;;;;;;4990726;28;20373;-59
2023/12/16 12:49:13;;;;;;;52.42;5.03;;;;;;;;;;4992342;28;20073;-62
2023/12/16 12:52:00;;;;;;;43.53;5.97;;;;;;;;;;4992120;28;20042;-55
2023/12/16 12:54:54;;;;;;;49.38;5.85;;;;;;;;;;4992977;28;20046;-56
2023/12/16 12:57:41;;;;;;;57.45;6.05;;;;;;;;;;4992239;28;20054;-56
2023/12/16 13:00:46;;;;;;;42.65;4.90;;;;;;;;;;4989526;28;20049;-57
2023/12/16 13:03:40;;;;;;;35.10;5.13;;;;;;;;;;4987982;28;20136;-56
2023/12/16 13:06:28;;;;;;;49.90;5.90;;;;;;;;;;4990860;28;20352;-53
2023/12/16 13:09:21;;;;;;;54.72;5.78;;;;;;;;;;4990360;28;20073;-53
2023/12/16 13:12:14;;;;;;;53.70;5.10;;;;;;;;;;4988572;28;20487;-51
2023/12/16 13:15:07;;;;;;;47.72;4.68;;;;;;;;;;4990340;28;20058;-49
2023/12/16 13:18:15;;;;;;;44.80;4.47;;;;;;;;;;4989821;28;20054;-52
2023/12/16 13:21:09;;;;;;;30.63;4.65;;;;;;;;;;4993022;28;20050;-51
2023/12/16 13:23:56;;;;;;;51.55;7.47;;;;;;;;;;4990063;28;20049;-59
2023/12/16 13:26:50;;;;;;;32.25;4.68;;;;;;;;;;4987022;28;20049;-55
2023/12/16 13:29:20;;;;;;;21.63;3.85;;;;;;;;;;4991662;28;20136;-55
2023/12/16 13:31:47;;;;;;;26.65;4.90;;;;;;;;;;4991416;28;20054;-56
2023/12/16 13:34:22;;;;;;;28.98;4.25;;;;;;;;;;4989292;28;20062;-52
2023/12/16 13:36:50;;;;;;;29.05;3.90;;;;;;;;;;4989048;28;20692;-56
2023/12/16 13:39:24;;;;;;;38.45;4.55;;;;;;;;;;4990724;28;21110;-56
2023/12/16 13:41:52;;;;;;;62.67;5.35;;;;;;;;;;4988401;28;20093;-53
2023/12/16 13:44:19;;;;;;;23.90;4.30;;;;;;;;;;4988433;28;20089;-65
2023/12/16 13:46:53;;;;;;;37.22;4.68;;;;;;;;;;4991669;28;20105;-54
2023/12/16 13:49:21;;;;;;;40.60;4.88;;;;;;;;;;4995147;28;20058;-56
2023/12/16 13:51:48;;;;;;;57.75;5.00;;;;;;;;;;4993329;28;20433;-55
2023/12/16 13:54:22;;;;;;;18.58;3.63;;;;;;;;;;4992558;28;20112;-56
2023/12/16 13:56:49;;;;;;;23.02;3.55;;;;;;;;;;4993197;28;20061;-55
2023/12/16 13:59:43;;;;;;;46.17;4.18;;;;;;;;;;4996760;28;20050;-55
2023/12/16 14:02:30;;;;;;;26.38;4.00;;;;;;;;;;4995839;28;20140;-61
2023/12/16 14:05:25;;;;;;;39.97;5.43;;;;;;;;;;4990638;28;20208;-61
2023/12/16 14:08:12;;;;;;;24.42;4.07;;;;;;;;;;4993004;28;20045;-61
2023/12/16 14:11:05;;;;;;;24.40;3.58;;;;;;;;;;4992647;28;20165;-59
2023/12/16 14:13:53;;;;;;;42.78;4.13;;;;;;;;;;4994348;28;20582;-61
2023/12/16 14:16:46;;;;;;;49.45;5.32;;;;;;;;;;4994254;28;20050;-61
2023/12/16 14:19:34;;;;;;;49.72;4.75;;;;;;;;;;4994928;28;20061;-62
2023/12/16 14:22:27;;;;;;;84.45;7.53;;;;;;;;;;4986551;28;20108;-62
2023/12/16 14:25:15;;;;;;;52.00;5.60;;;;;;;;;;4993652;28;20759;-62
2023/12/16 14:28:08;;;;;;;50.70;6.53;;;;;;;;;;4994662;28;20042;-63
2023/12/16 14:30:55;;;;;;;53.97;5.57;;;;;;;;;;4996233;28;20054;-64
2023/12/16 14:33:56;;;;;;;82.75;9.32;;;;;;;;;;4991691;28;20050;-63
2023/12/16 14:36:43;;;;;;;51.67;6.85;;;;;;;;;;4997680;28;20066;-63
2023/12/16 14:39:37;;;;;;;67.57;7.10;;;;;;;;;;4992892;28;20106;-63
2023/12/16 14:42:24;;;;;;;56.42;6.63;;;;;;;;;;4992449;28;20469;-62
2023/12/16 14:45:18;;;;;;;72.05;7.25;;;;;;;;;;4996716;28;20038;-62
2023/12/16 14:48:05;;;;;;;61.40;7.53;;;;;;;;;;4994105;28;20133;-62
2023/12/16 14:50:59;;;;;;;66.40;8.75;;;;;;;;;;4988504;28;20153;-65
2023/12/16 14:53:47;;;;;;;71.82;8.07;;;;;;;;;;4985398;28;20085;-62
2023/12/16 14:56:41;;;;;;;75.10;9.98;;;;;;;;;;4989025;28;20173;-63
2023/12/16 14:59:30;;;;;;;73.82;7.88;;;;;;;;;;4984846;28;20168;-68
2023/12/16 15:02:22;;;;;;;71.03;8.32;;;;;;;;;;4981801;28;20050;-69
2023/12/16 15:05:10;;;;;;;63.55;8.00;;;;;;;;;;4982940;28;20500;-69
2023/12/16 15:08:05;;;;;;;63.05;8.02;;;;;;;;;;4984945;28;20046;-60
2023/12/16 15:10:58;;;;;;;74.00;9.00;;;;;;;;;;4981998;28;20050;-60
2023/12/16 15:13:46;;;;;;;57.00;7.82;;;;;;;;;;4985379;28;20072;-59
2023/12/16 15:16:39;;;;;;;83.28;8.88;;;;;;;;;;4982069;28;20112;-59
2023/12/16 15:19:26;;;;;;;57.08;7.20;;;;;;;;;;4990541;28;20050;-59
2023/12/16 15:22:20;;;;;;;60.00;8.23;;;;;;;;;;4985111;28;20512;-59
2023/12/16 15:25:08;;;;;;;57.95;7.70;;;;;;;;;;4987452;28;20567;-59
2023/12/16 15:28:04;;;;;;;77.50;8.38;;;;;;;;;;4988395;28;20202;-60
2023/12/16 15:30:53;;;;;;;62.63;7.13;;;;;;;;;;4991061;28;20065;-60
2023/12/16 15:33:52;;;;;;;70.90;9.40;;;;;;;;;;4981605;28;20062;-59
2023/12/16 15:36:39;;;;;;;71.97;8.05;;;;;;;;;;4993525;28;20706;-69
2023/12/16 15:39:44;;;;;;;67.50;8.85;;;;;;;;;;4979176;28;20046;-58
2023/12/16 15:42:28;;;;;;;82.88;7.88;;;;;;;;;;4985279;28;20046;-59
2023/12/16 15:45:22;;;;;;;101.93;9.70;;;;;;;;;;4986934;28;20169;-58
2023/12/16 15:48:16;;;;;;;78.85;10.07;;;;;;;;;;4989768;28;20136;-58
2023/12/16 15:51:04;;;;;;;61.78;9.52;;;;;;;;;;4986855;28;20038;-58
2023/12/16 15:53:57;;;;;;;63.08;8.07;;;;;;;;;;4985819;28;20054;-58
2023/12/16 15:56:45;;;;;;;71.72;8.50;;;;;;;;;;4989043;28;20054;-60
2023/12/16 15:59:38;;;;;;;58.47;9.63;;;;;;;;;;4974753;28;20514;-60
2023/12/16 16:02:32;;;;;;;67.60;7.90;;;;;;;;;;4976045;28;20053;-60
2023/12/16 16:05:19;;;;;;;81.47;10.52;;;;;;;;;;4988248;28;20046;-53
2023/12/16 16:08:13;;;;;;;60.83;9.23;;;;;;;;;;4979905;28;20058;-52
2023/12/16 16:11:00;;;;;;;82.32;10.30;;;;;;;;;;4977770;28;20051;-54
2023/12/16 16:13:54;;;;;;;84.72;10.45;;;;;;;;;;4986874;28;20410;-52
2023/12/16 16:16:41;;;;;;;86.43;9.27;;;;;;;;;;4988332;28;20492;-50
2023/12/16 16:19:35;;;;;;;59.65;8.32;;;;;;;;;;4978735;28;21919;-54
2023/12/16 16:22:22;;;;;;;90.68;10.02;;;;;;;;;;4993729;28;20127;-54